sensor_id;sensor_type;location;lat;lon;timestamp;temperature;humidity
33328;DHT22;19692;52.998;9.116;2023-07-24T00:02:05;18.20;99.90
33328;DHT22;19692;52.998;9.116;2023-07-24T00:04:31;18.20;99.90
33328;DHT22;19692;52.998;9.116;2023-07-24T00:06:57;18.20;99.90
33328;DHT22;19692;52.998;9.116;2023-07-24T00:09:23;18.20;99.90
33328;DHT22;19692;52.998;9.116;2023-07-24T00:11:49;18.20;99.90
33328;DHT22;19692;52.998;9.116;2023-07-24T00:14:16;18.20;99.90
33328;DHT22;19692;52.998;9.116;2023-07-24T00:16:42;18.20;99.90
33328;DHT22;19692;52.998;9.116;2023-07-24T00:19:08;18.20;99.90
33328;DHT22;19692;52.998;9.116;2023-07-24T00:21:33;18.30;99.90
33328;DHT22;19692;52.998;9.116;2023-07-24T00:23:59;18.20;99.90
33328;DHT22;19692;52.998;9.116;2023-07-24T00:26:25;18.20;99.90
33328;DHT22;19692;52.998;9.116;2023-07-24T00:28:51;18.20;99.90
33328;DHT22;19692;52.998;9.116;2023-07-24T00:31:16;18.30;99.90
33328;DHT22;19692;52.998;9.116;2023-07-24T00:33:42;18.30;99.90
33328;DHT22;19692;52.998;9.116;2023-07-24T00:36:08;18.30;99.90
33328;DHT22;19692;52.998;9.116;2023-07-24T00:38:33;18.30;99.90
33328;DHT22;19692;52.998;9.116;2023-07-24T00:40:59;18.30;99.90
33328;DHT22;19692;52.998;9.116;2023-07-24T00:43:25;18.30;99.90
33328;DHT22;19692;52.998;9.116;2023-07-24T00:45:51;18.30;99.90
33328;DHT22;19692;52.998;9.116;2023-07-24T00:48:17;18.40;99.90
33328;DHT22;19692;52.998;9.116;2023-07-24T00:50:44;18.30;99.90
33328;DHT22;19692;52.998;9.116;2023-07-24T00:53:11;18.30;99.90
33328;DHT22;19692;52.998;9.116;2023-07-24T00:55:38;18.40;99.90
33328;DHT22;19692;52.998;9.116;2023-07-24T00:58:05;18.30;99.90
33328;DHT22;19692;52.998;9.116;2023-07-24T01:00:31;18.30;99.90
33328;DHT22;19692;52.998;9.116;2023-07-24T01:02:59;18.30;99.90
33328;DHT22;19692;52.998;9.116;2023-07-24T01:05:25;18.20;99.90
33328;DHT22;19692;52.998;9.116;2023-07-24T01:07:54;18.20;99.90
33328;DHT22;19692;52.998;9.116;2023-07-24T01:10:20;18.20;99.90
33328;DHT22;19692;52.998;9.116;2023-07-24T01:12:59;18.20;99.90
33328;DHT22;19692;52.998;9.116;2023-07-24T01:15:54;18.20;99.90
33328;DHT22;19692;52.998;9.116;2023-07-24T01:18:22;18.10;99.90
33328;DHT22;19692;52.998;9.116;2023-07-24T01:20:56;18.10;99.90
33328;DHT22;19692;52.998;9.116;2023-07-24T01:23:50;18.10;99.90
33328;DHT22;19692;52.998;9.116;2023-07-24T01:26:38;18.10;99.90
33328;DHT22;19692;52.998;9.116;2023-07-24T01:29:03;18.10;99.90
33328;DHT22;19692;52.998;9.116;2023-07-24T01:31:29;18.10;99.90
33328;DHT22;19692;52.998;9.116;2023-07-24T01:33:55;18.10;99.90
33328;DHT22;19692;52.998;9.116;2023-07-24T01:36:21;18.10;99.90
33328;DHT22;19692;52.998;9.116;2023-07-24T01:38:48;18.00;99.90
33328;DHT22;19692;52.998;9.116;2023-07-24T01:41:14;18.10;99.90
33328;DHT22;19692;52.998;9.116;2023-07-24T01:43:40;18.10;99.90
33328;DHT22;19692;52.998;9.116;2023-07-24T01:46:06;18.10;99.90
33328;DHT22;19692;52.998;9.116;2023-07-24T01:48:32;18.10;99.90
33328;DHT22;19692;52.998;9.116;2023-07-24T01:50:57;18.10;99.90
33328;DHT22;19692;52.998;9.116;2023-07-24T01:53:23;18.00;99.90
33328;DHT22;19692;52.998;9.116;2023-07-24T01:55:49;18.00;99.90
33328;DHT22;19692;52.998;9.116;2023-07-24T01:58:15;17.90;99.90
33328;DHT22;19692;52.998;9.116;2023-07-24T02:00:40;18.00;99.90
33328;DHT22;19692;52.998;9.116;2023-07-24T02:03:06;17.90;99.90
33328;DHT22;19692;52.998;9.116;2023-07-24T02:05:32;17.90;99.90
33328;DHT22;19692;52.998;9.116;2023-07-24T02:07:57;17.80;99.90
33328;DHT22;19692;52.998;9.116;2023-07-24T02:10:23;17.80;99.90
33328;DHT22;19692;52.998;9.116;2023-07-24T02:12:49;17.80;99.90
33328;DHT22;19692;52.998;9.116;2023-07-24T02:15:15;17.80;99.90
33328;DHT22;19692;52.998;9.116;2023-07-24T02:17:40;17.80;99.90
33328;DHT22;19692;52.998;9.116;2023-07-24T02:20:08;17.80;99.90
33328;DHT22;19692;52.998;9.116;2023-07-24T02:22:33;17.80;99.90
33328;DHT22;19692;52.998;9.116;2023-07-24T02:24:59;17.80;99.90
33328;DHT22;19692;52.998;9.116;2023-07-24T02:27:31;17.80;99.90
33328;DHT22;19692;52.998;9.116;2023-07-24T02:30:00;17.80;99.90
33328;DHT22;19692;52.998;9.116;2023-07-24T02:32:26;17.80;99.90
33328;DHT22;19692;52.998;9.116;2023-07-24T02:34:53;17.90;99.90
33328;DHT22;19692;52.998;9.116;2023-07-24T02:37:19;17.80;99.90
33328;DHT22;19692;52.998;9.116;2023-07-24T02:39:45;17.80;99.90
33328;DHT22;19692;52.998;9.116;2023-07-24T02:42:11;17.80;99.90
33328;DHT22;19692;52.998;9.116;2023-07-24T02:44:37;17.80;99.90
33328;DHT22;19692;52.998;9.116;2023-07-24T02:47:03;17.80;99.90
33328;DHT22;19692;52.998;9.116;2023-07-24T02:49:29;17.80;99.90
33328;DHT22;19692;52.998;9.116;2023-07-24T02:51:55;17.80;99.90
33328;DHT22;19692;52.998;9.116;2023-07-24T02:54:21;17.80;99.90
33328;DHT22;19692;52.998;9.116;2023-07-24T02:56:47;17.80;99.90
33328;DHT22;19692;52.998;9.116;2023-07-24T02:59:12;17.80;99.90
33328;DHT22;19692;52.998;9.116;2023-07-24T03:01:38;17.80;99.90
33328;DHT22;19692;52.998;9.116;2023-07-24T03:04:04;17.80;99.90
33328;DHT22;19692;52.998;9.116;2023-07-24T03:06:31;17.80;99.90
33328;DHT22;19692;52.998;9.116;2023-07-24T03:08:57;17.80;99.90
33328;DHT22;19692;52.998;9.116;2023-07-24T03:11:23;17.80;99.90
33328;DHT22;19692;52.998;9.116;2023-07-24T03:13:49;17.70;99.90
33328;DHT22;19692;52.998;9.116;2023-07-24T03:16:14;17.70;99.90
33328;DHT22;19692;52.998;9.116;2023-07-24T03:18:42;17.70;99.90
33328;DHT22;19692;52.998;9.116;2023-07-24T03:21:09;17.70;99.90
33328;DHT22;19692;52.998;9.116;2023-07-24T03:23:34;17.70;99.90
33328;DHT22;19692;52.998;9.116;2023-07-24T03:26:00;17.70;99.90
33328;DHT22;19692;52.998;9.116;2023-07-24T03:28:26;17.70;99.90
33328;DHT22;19692;52.998;9.116;2023-07-24T03:30:52;17.70;99.90
33328;DHT22;19692;52.998;9.116;2023-07-24T03:33:18;17.70;99.90
33328;DHT22;19692;52.998;9.116;2023-07-24T03:35:43;17.70;99.90
33328;DHT22;19692;52.998;9.116;2023-07-24T03:38:09;17.70;99.90
33328;DHT22;19692;52.998;9.116;2023-07-24T03:40:35;17.60;99.90
33328;DHT22;19692;52.998;9.116;2023-07-24T03:43:01;17.60;99.90
33328;DHT22;19692;52.998;9.116;2023-07-24T03:45:27;17.60;99.90
33328;DHT22;19692;52.998;9.116;2023-07-24T03:47:52;17.60;99.90
33328;DHT22;19692;52.998;9.116;2023-07-24T03:50:18;17.50;99.90
33328;DHT22;19692;52.998;9.116;2023-07-24T03:52:44;17.50;99.90
33328;DHT22;19692;52.998;9.116;2023-07-24T03:55:09;17.50;99.90
33328;DHT22;19692;52.998;9.116;2023-07-24T03:57:36;17.50;99.90
33328;DHT22;19692;52.998;9.116;2023-07-24T04:00:02;17.40;99.90
33328;DHT22;19692;52.998;9.116;2023-07-24T04:02:28;17.40;99.90
33328;DHT22;19692;52.998;9.116;2023-07-24T04:04:54;17.40;99.90
33328;DHT22;19692;52.998;9.116;2023-07-24T04:07:20;17.40;99.90
33328;DHT22;19692;52.998;9.116;2023-07-24T04:09:46;17.40;99.90
33328;DHT22;19692;52.998;9.116;2023-07-24T04:12:11;17.40;99.90
33328;DHT22;19692;52.998;9.116;2023-07-24T04:14:37;17.50;99.90
33328;DHT22;19692;52.998;9.116;2023-07-24T04:17:03;17.40;99.90
33328;DHT22;19692;52.998;9.116;2023-07-24T04:19:29;17.40;99.90
33328;DHT22;19692;52.998;9.116;2023-07-24T04:21:55;17.40;99.90
33328;DHT22;19692;52.998;9.116;2023-07-24T04:24:20;17.40;99.90
33328;DHT22;19692;52.998;9.116;2023-07-24T04:26:46;17.50;99.90
33328;DHT22;19692;52.998;9.116;2023-07-24T04:29:12;17.50;99.90
33328;DHT22;19692;52.998;9.116;2023-07-24T04:31:38;17.60;99.90
33328;DHT22;19692;52.998;9.116;2023-07-24T04:34:04;17.70;99.90
33328;DHT22;19692;52.998;9.116;2023-07-24T04:36:29;17.70;99.90
33328;DHT22;19692;52.998;9.116;2023-07-24T04:38:55;17.80;99.90
33328;DHT22;19692;52.998;9.116;2023-07-24T04:41:21;17.80;99.90
33328;DHT22;19692;52.998;9.116;2023-07-24T04:43:46;17.90;99.90
33328;DHT22;19692;52.998;9.116;2023-07-24T04:46:12;18.00;99.90
33328;DHT22;19692;52.998;9.116;2023-07-24T04:48:38;18.10;99.90
33328;DHT22;19692;52.998;9.116;2023-07-24T04:51:04;18.20;99.90
33328;DHT22;19692;52.998;9.116;2023-07-24T04:53:29;18.30;99.90
33328;DHT22;19692;52.998;9.116;2023-07-24T04:55:55;18.30;99.90
33328;DHT22;19692;52.998;9.116;2023-07-24T04:58:21;18.30;99.90
33328;DHT22;19692;52.998;9.116;2023-07-24T05:00:47;18.40;99.90
33328;DHT22;19692;52.998;9.116;2023-07-24T05:03:13;18.30;99.90
33328;DHT22;19692;52.998;9.116;2023-07-24T05:05:38;18.30;99.90
33328;DHT22;19692;52.998;9.116;2023-07-24T05:08:04;18.30;99.90
33328;DHT22;19692;52.998;9.116;2023-07-24T05:10:35;18.30;99.90
33328;DHT22;19692;52.998;9.116;2023-07-24T05:13:01;18.20;99.90
33328;DHT22;19692;52.998;9.116;2023-07-24T05:15:27;18.20;99.90
33328;DHT22;19692;52.998;9.116;2023-07-24T05:17:53;18.20;99.90
33328;DHT22;19692;52.998;9.116;2023-07-24T05:20:18;18.20;99.90
33328;DHT22;19692;52.998;9.116;2023-07-24T05:22:44;18.20;99.90
33328;DHT22;19692;52.998;9.116;2023-07-24T05:25:10;18.40;99.90
33328;DHT22;19692;52.998;9.116;2023-07-24T05:27:36;18.50;99.90
33328;DHT22;19692;52.998;9.116;2023-07-24T05:30:03;18.50;99.90
33328;DHT22;19692;52.998;9.116;2023-07-24T05:32:30;18.50;99.90
33328;DHT22;19692;52.998;9.116;2023-07-24T05:34:55;18.60;99.90
33328;DHT22;19692;52.998;9.116;2023-07-24T05:37:21;18.50;99.90
33328;DHT22;19692;52.998;9.116;2023-07-24T05:39:47;18.50;99.90
33328;DHT22;19692;52.998;9.116;2023-07-24T05:42:13;18.50;99.90
33328;DHT22;19692;52.998;9.116;2023-07-24T05:44:38;18.50;99.90
33328;DHT22;19692;52.998;9.116;2023-07-24T05:47:04;18.60;99.90
33328;DHT22;19692;52.998;9.116;2023-07-24T05:49:30;18.60;99.90
33328;DHT22;19692;52.998;9.116;2023-07-24T05:51:58;18.60;99.90
33328;DHT22;19692;52.998;9.116;2023-07-24T05:54:24;18.50;99.90
33328;DHT22;19692;52.998;9.116;2023-07-24T05:56:52;18.60;99.90
33328;DHT22;19692;52.998;9.116;2023-07-24T05:59:18;18.50;99.90
33328;DHT22;19692;52.998;9.116;2023-07-24T06:01:43;18.50;99.90
33328;DHT22;19692;52.998;9.116;2023-07-24T06:04:09;18.50;99.90
33328;DHT22;19692;52.998;9.116;2023-07-24T06:06:35;18.50;99.90
33328;DHT22;19692;52.998;9.116;2023-07-24T06:09:02;18.60;99.90
33328;DHT22;19692;52.998;9.116;2023-07-24T06:11:28;18.50;99.90
33328;DHT22;19692;52.998;9.116;2023-07-24T06:13:54;18.50;99.90
33328;DHT22;19692;52.998;9.116;2023-07-24T06:16:19;18.60;99.90
33328;DHT22;19692;52.998;9.116;2023-07-24T06:18:45;18.50;99.90
33328;DHT22;19692;52.998;9.116;2023-07-24T06:21:11;18.50;99.90
33328;DHT22;19692;52.998;9.116;2023-07-24T06:23:37;18.50;99.90
33328;DHT22;19692;52.998;9.116;2023-07-24T06:26:03;18.40;99.90
33328;DHT22;19692;52.998;9.116;2023-07-24T06:28:28;18.40;99.90
33328;DHT22;19692;52.998;9.116;2023-07-24T06:30:54;18.30;99.90
33328;DHT22;19692;52.998;9.116;2023-07-24T06:33:21;18.20;99.90
33328;DHT22;19692;52.998;9.116;2023-07-24T06:35:48;18.30;99.90
33328;DHT22;19692;52.998;9.116;2023-07-24T06:38:15;18.20;99.90
33328;DHT22;19692;52.998;9.116;2023-07-24T06:40:41;18.20;99.90
33328;DHT22;19692;52.998;9.116;2023-07-24T06:43:06;18.20;99.90
33328;DHT22;19692;52.998;9.116;2023-07-24T06:45:32;18.10;99.90
33328;DHT22;19692;52.998;9.116;2023-07-24T06:47:58;18.20;99.90
33328;DHT22;19692;52.998;9.116;2023-07-24T06:50:24;18.30;99.90
33328;DHT22;19692;52.998;9.116;2023-07-24T06:52:49;18.20;99.90
33328;DHT22;19692;52.998;9.116;2023-07-24T06:55:17;18.20;99.90
33328;DHT22;19692;52.998;9.116;2023-07-24T06:57:42;18.20;99.90
33328;DHT22;19692;52.998;9.116;2023-07-24T07:00:09;18.20;99.90
33328;DHT22;19692;52.998;9.116;2023-07-24T07:02:37;18.20;99.90
33328;DHT22;19692;52.998;9.116;2023-07-24T07:05:06;18.20;99.90
33328;DHT22;19692;52.998;9.116;2023-07-24T07:07:32;18.20;99.90
33328;DHT22;19692;52.998;9.116;2023-07-24T07:09:58;18.20;99.90
33328;DHT22;19692;52.998;9.116;2023-07-24T07:12:23;18.10;99.90
33328;DHT22;19692;52.998;9.116;2023-07-24T07:14:49;18.20;99.90
33328;DHT22;19692;52.998;9.116;2023-07-24T07:17:15;18.10;99.90
33328;DHT22;19692;52.998;9.116;2023-07-24T07:19:41;18.20;99.90
33328;DHT22;19692;52.998;9.116;2023-07-24T07:22:06;18.20;99.90
33328;DHT22;19692;52.998;9.116;2023-07-24T07:24:32;18.20;99.90
33328;DHT22;19692;52.998;9.116;2023-07-24T07:26:58;18.20;99.90
33328;DHT22;19692;52.998;9.116;2023-07-24T07:29:24;18.20;99.90
33328;DHT22;19692;52.998;9.116;2023-07-24T07:31:49;18.20;99.90
33328;DHT22;19692;52.998;9.116;2023-07-24T07:34:15;18.30;99.90
33328;DHT22;19692;52.998;9.116;2023-07-24T07:36:41;18.30;99.90
33328;DHT22;19692;52.998;9.116;2023-07-24T07:39:07;18.30;99.90
33328;DHT22;19692;52.998;9.116;2023-07-24T07:41:32;18.30;99.90
33328;DHT22;19692;52.998;9.116;2023-07-24T07:43:58;18.30;99.90
33328;DHT22;19692;52.998;9.116;2023-07-24T07:46:24;18.40;99.90
33328;DHT22;19692;52.998;9.116;2023-07-24T07:48:51;18.30;99.90
33328;DHT22;19692;52.998;9.116;2023-07-24T07:51:16;18.40;99.90
33328;DHT22;19692;52.998;9.116;2023-07-24T07:53:42;18.40;99.90
33328;DHT22;19692;52.998;9.116;2023-07-24T07:56:08;18.40;99.90
33328;DHT22;19692;52.998;9.116;2023-07-24T07:58:33;18.50;99.90
33328;DHT22;19692;52.998;9.116;2023-07-24T08:01:06;18.50;99.90
33328;DHT22;19692;52.998;9.116;2023-07-24T08:03:32;18.60;99.90
33328;DHT22;19692;52.998;9.116;2023-07-24T08:05:58;18.60;99.90
33328;DHT22;19692;52.998;9.116;2023-07-24T08:08:24;18.50;99.90
33328;DHT22;19692;52.998;9.116;2023-07-24T08:10:50;18.60;99.90
33328;DHT22;19692;52.998;9.116;2023-07-24T08:13:16;18.60;99.90
33328;DHT22;19692;52.998;9.116;2023-07-24T08:15:42;18.60;99.90
33328;DHT22;19692;52.998;9.116;2023-07-24T08:18:07;18.70;99.90
33328;DHT22;19692;52.998;9.116;2023-07-24T08:20:37;18.70;99.90
33328;DHT22;19692;52.998;9.116;2023-07-24T08:23:03;18.90;99.90
33328;DHT22;19692;52.998;9.116;2023-07-24T08:25:29;18.90;99.90
33328;DHT22;19692;52.998;9.116;2023-07-24T08:27:54;19.10;99.90
33328;DHT22;19692;52.998;9.116;2023-07-24T08:30:20;19.00;99.90
33328;DHT22;19692;52.998;9.116;2023-07-24T08:32:46;19.10;99.90
33328;DHT22;19692;52.998;9.116;2023-07-24T08:35:12;19.20;99.90
33328;DHT22;19692;52.998;9.116;2023-07-24T08:37:38;19.30;99.90
33328;DHT22;19692;52.998;9.116;2023-07-24T08:40:09;19.30;99.90
33328;DHT22;19692;52.998;9.116;2023-07-24T08:42:39;19.20;99.90
33328;DHT22;19692;52.998;9.116;2023-07-24T08:45:13;19.20;99.90
33328;DHT22;19692;52.998;9.116;2023-07-24T08:47:44;19.30;99.90
33328;DHT22;19692;52.998;9.116;2023-07-24T08:50:10;19.20;99.90
33328;DHT22;19692;52.998;9.116;2023-07-24T08:52:40;19.20;99.90
33328;DHT22;19692;52.998;9.116;2023-07-24T08:55:08;19.20;99.90
33328;DHT22;19692;52.998;9.116;2023-07-24T08:57:34;19.10;99.90
33328;DHT22;19692;52.998;9.116;2023-07-24T09:00:01;19.10;99.90
33328;DHT22;19692;52.998;9.116;2023-07-24T09:02:32;19.00;99.90
33328;DHT22;19692;52.998;9.116;2023-07-24T09:04:58;19.10;99.90
33328;DHT22;19692;52.998;9.116;2023-07-24T09:07:24;19.10;99.90
33328;DHT22;19692;52.998;9.116;2023-07-24T09:09:50;19.10;99.90
33328;DHT22;19692;52.998;9.116;2023-07-24T09:12:16;19.10;99.90
33328;DHT22;19692;52.998;9.116;2023-07-24T09:14:42;19.10;99.90
33328;DHT22;19692;52.998;9.116;2023-07-24T09:17:09;19.00;99.90
33328;DHT22;19692;52.998;9.116;2023-07-24T09:19:35;19.00;99.90
33328;DHT22;19692;52.998;9.116;2023-07-24T09:22:15;19.00;99.90
33328;DHT22;19692;52.998;9.116;2023-07-24T09:24:55;18.90;99.90
33328;DHT22;19692;52.998;9.116;2023-07-24T09:27:25;19.10;99.90
33328;DHT22;19692;52.998;9.116;2023-07-24T09:29:52;19.30;99.90
33328;DHT22;19692;52.998;9.116;2023-07-24T09:32:19;19.50;99.90
33328;DHT22;19692;52.998;9.116;2023-07-24T09:34:47;19.70;99.90
33328;DHT22;19692;52.998;9.116;2023-07-24T09:37:33;19.70;99.90
33328;DHT22;19692;52.998;9.116;2023-07-24T09:39:59;19.60;99.90
33328;DHT22;19692;52.998;9.116;2023-07-24T09:42:29;19.60;99.90
33328;DHT22;19692;52.998;9.116;2023-07-24T09:44:55;19.60;99.90
33328;DHT22;19692;52.998;9.116;2023-07-24T09:47:21;19.50;99.90
33328;DHT22;19692;52.998;9.116;2023-07-24T09:49:47;19.50;99.90
33328;DHT22;19692;52.998;9.116;2023-07-24T09:52:14;19.40;99.90
33328;DHT22;19692;52.998;9.116;2023-07-24T09:57:36;19.10;99.90
33328;DHT22;19692;52.998;9.116;2023-07-24T10:00:02;19.00;99.90
33328;DHT22;19692;52.998;9.116;2023-07-24T10:02:28;19.10;99.90
33328;DHT22;19692;52.998;9.116;2023-07-24T10:04:55;19.10;99.90
33328;DHT22;19692;52.998;9.116;2023-07-24T10:07:22;19.10;99.90
33328;DHT22;19692;52.998;9.116;2023-07-24T10:09:49;19.20;99.90
33328;DHT22;19692;52.998;9.116;2023-07-24T10:12:19;19.60;99.90
33328;DHT22;19692;52.998;9.116;2023-07-24T10:14:46;20.10;99.90
33328;DHT22;19692;52.998;9.116;2023-07-24T10:17:12;20.70;99.90
33328;DHT22;19692;52.998;9.116;2023-07-24T10:19:44;21.00;99.90
33328;DHT22;19692;52.998;9.116;2023-07-24T10:22:19;21.10;99.90
33328;DHT22;19692;52.998;9.116;2023-07-24T10:24:46;21.20;99.90
33328;DHT22;19692;52.998;9.116;2023-07-24T10:27:12;21.20;99.90
33328;DHT22;19692;52.998;9.116;2023-07-24T10:29:38;21.40;99.90
33328;DHT22;19692;52.998;9.116;2023-07-24T10:32:16;21.40;99.90
33328;DHT22;19692;52.998;9.116;2023-07-24T10:34:42;21.10;99.90
33328;DHT22;19692;52.998;9.116;2023-07-24T10:37:08;20.80;99.90
33328;DHT22;19692;52.998;9.116;2023-07-24T10:39:41;21.00;99.90
33328;DHT22;19692;52.998;9.116;2023-07-24T10:42:10;21.30;99.90
33328;DHT22;19692;52.998;9.116;2023-07-24T10:44:37;21.70;99.90
33328;DHT22;19692;52.998;9.116;2023-07-24T10:47:04;21.90;99.90
33328;DHT22;19692;52.998;9.116;2023-07-24T10:49:30;21.90;99.90
33328;DHT22;19692;52.998;9.116;2023-07-24T10:51:57;21.70;99.90
33328;DHT22;19692;52.998;9.116;2023-07-24T10:54:24;21.50;99.90
33328;DHT22;19692;52.998;9.116;2023-07-24T10:56:49;21.20;99.90
33328;DHT22;19692;52.998;9.116;2023-07-24T10:59:15;21.50;99.90
33328;DHT22;19692;52.998;9.116;2023-07-24T11:01:41;21.70;99.90
33328;DHT22;19692;52.998;9.116;2023-07-24T11:04:08;21.80;99.90
33328;DHT22;19692;52.998;9.116;2023-07-24T11:06:35;22.00;99.90
33328;DHT22;19692;52.998;9.116;2023-07-24T11:09:01;22.20;99.90
33328;DHT22;19692;52.998;9.116;2023-07-24T11:11:31;22.50;99.90
33328;DHT22;19692;52.998;9.116;2023-07-24T11:14:03;22.90;99.90
33328;DHT22;19692;52.998;9.116;2023-07-24T11:16:30;23.40;99.90
33328;DHT22;19692;52.998;9.116;2023-07-24T11:18:56;23.70;99.90
33328;DHT22;19692;52.998;9.116;2023-07-24T11:21:23;23.80;99.90
33328;DHT22;19692;52.998;9.116;2023-07-24T11:23:51;23.70;99.90
33328;DHT22;19692;52.998;9.116;2023-07-24T11:26:22;23.70;99.90
33328;DHT22;19692;52.998;9.116;2023-07-24T11:28:51;23.70;99.90
33328;DHT22;19692;52.998;9.116;2023-07-24T11:31:17;24.00;99.90
33328;DHT22;19692;52.998;9.116;2023-07-24T11:33:47;23.70;99.90
33328;DHT22;19692;52.998;9.116;2023-07-24T11:36:14;23.80;99.90
33328;DHT22;19692;52.998;9.116;2023-07-24T11:38:40;23.80;99.90
33328;DHT22;19692;52.998;9.116;2023-07-24T11:41:08;23.80;99.90
33328;DHT22;19692;52.998;9.116;2023-07-24T11:43:34;24.00;99.90
33328;DHT22;19692;52.998;9.116;2023-07-24T11:46:00;24.10;99.90
33328;DHT22;19692;52.998;9.116;2023-07-24T11:48:26;24.50;99.90
33328;DHT22;19692;52.998;9.116;2023-07-24T11:50:53;24.40;99.90
33328;DHT22;19692;52.998;9.116;2023-07-24T11:53:31;24.20;99.90
33328;DHT22;19692;52.998;9.116;2023-07-24T11:55:59;24.40;99.90
33328;DHT22;19692;52.998;9.116;2023-07-24T11:58:28;24.50;99.90
33328;DHT22;19692;52.998;9.116;2023-07-24T12:00:55;24.60;99.90
33328;DHT22;19692;52.998;9.116;2023-07-24T12:03:22;24.40;99.90
33328;DHT22;19692;52.998;9.116;2023-07-24T12:05:50;24.50;99.90
33328;DHT22;19692;52.998;9.116;2023-07-24T12:08:16;24.60;99.90
33328;DHT22;19692;52.998;9.116;2023-07-24T12:10:44;24.70;99.90
33328;DHT22;19692;52.998;9.116;2023-07-24T12:13:10;24.60;99.90
33328;DHT22;19692;52.998;9.116;2023-07-24T12:15:36;24.80;99.90
33328;DHT22;19692;52.998;9.116;2023-07-24T12:18:04;24.80;99.90
33328;DHT22;19692;52.998;9.116;2023-07-24T12:20:31;24.70;99.90
33328;DHT22;19692;52.998;9.116;2023-07-24T12:22:57;24.60;99.90
33328;DHT22;19692;52.998;9.116;2023-07-24T12:25:23;24.50;99.90
33328;DHT22;19692;52.998;9.116;2023-07-24T12:27:49;24.40;99.90
33328;DHT22;19692;52.998;9.116;2023-07-24T12:30:15;24.20;99.90
33328;DHT22;19692;52.998;9.116;2023-07-24T12:32:41;24.30;99.90
33328;DHT22;19692;52.998;9.116;2023-07-24T12:35:08;24.60;99.90
33328;DHT22;19692;52.998;9.116;2023-07-24T12:37:35;24.80;99.90
33328;DHT22;19692;52.998;9.116;2023-07-24T12:40:01;24.90;99.90
33328;DHT22;19692;52.998;9.116;2023-07-24T12:42:27;25.00;99.90
33328;DHT22;19692;52.998;9.116;2023-07-24T12:44:53;24.90;99.90
33328;DHT22;19692;52.998;9.116;2023-07-24T12:47:19;24.60;99.90
33328;DHT22;19692;52.998;9.116;2023-07-24T12:49:45;24.90;99.90
33328;DHT22;19692;52.998;9.116;2023-07-24T12:52:11;25.30;99.90
33328;DHT22;19692;52.998;9.116;2023-07-24T12:54:37;24.90;99.90
33328;DHT22;19692;52.998;9.116;2023-07-24T12:57:03;24.50;99.90
33328;DHT22;19692;52.998;9.116;2023-07-24T12:59:29;24.20;99.90
33328;DHT22;19692;52.998;9.116;2023-07-24T13:01:57;24.20;99.90
33328;DHT22;19692;52.998;9.116;2023-07-24T13:04:23;23.90;99.90
33328;DHT22;19692;52.998;9.116;2023-07-24T13:06:49;23.80;99.90
33328;DHT22;19692;52.998;9.116;2023-07-24T13:09:15;23.90;99.90
33328;DHT22;19692;52.998;9.116;2023-07-24T13:11:41;24.00;99.90
33328;DHT22;19692;52.998;9.116;2023-07-24T13:14:07;24.10;99.90
33328;DHT22;19692;52.998;9.116;2023-07-24T13:16:32;24.20;99.90
33328;DHT22;19692;52.998;9.116;2023-07-24T13:18:58;24.20;99.90
33328;DHT22;19692;52.998;9.116;2023-07-24T13:21:24;24.10;99.90
33328;DHT22;19692;52.998;9.116;2023-07-24T13:23:50;24.40;99.90
33328;DHT22;19692;52.998;9.116;2023-07-24T13:26:17;24.50;99.90
33328;DHT22;19692;52.998;9.116;2023-07-24T13:28:42;24.60;99.90
33328;DHT22;19692;52.998;9.116;2023-07-24T13:31:14;24.60;99.90
33328;DHT22;19692;52.998;9.116;2023-07-24T13:33:40;24.70;99.90
33328;DHT22;19692;52.998;9.116;2023-07-24T13:36:06;24.60;99.90
33328;DHT22;19692;52.998;9.116;2023-07-24T13:38:32;24.20;99.90
33328;DHT22;19692;52.998;9.116;2023-07-24T13:40:58;23.80;99.90
33328;DHT22;19692;52.998;9.116;2023-07-24T13:43:24;23.20;99.90
33328;DHT22;19692;52.998;9.116;2023-07-24T13:45:50;22.70;99.90
33328;DHT22;19692;52.998;9.116;2023-07-24T13:48:15;22.50;99.90
33328;DHT22;19692;52.998;9.116;2023-07-24T13:50:41;22.10;99.90
33328;DHT22;19692;52.998;9.116;2023-07-24T13:53:07;22.00;99.90
33328;DHT22;19692;52.998;9.116;2023-07-24T13:55:33;22.20;99.90
33328;DHT22;19692;52.998;9.116;2023-07-24T13:57:59;22.10;99.90
33328;DHT22;19692;52.998;9.116;2023-07-24T14:00:25;22.20;99.90
33328;DHT22;19692;52.998;9.116;2023-07-24T14:02:51;22.40;99.90
33328;DHT22;19692;52.998;9.116;2023-07-24T14:05:17;22.30;99.90
33328;DHT22;19692;52.998;9.116;2023-07-24T14:07:43;22.30;99.90
33328;DHT22;19692;52.998;9.116;2023-07-24T14:10:09;22.30;99.90
33328;DHT22;19692;52.998;9.116;2023-07-24T14:12:35;22.40;99.90
33328;DHT22;19692;52.998;9.116;2023-07-24T14:15:01;22.60;99.90
33328;DHT22;19692;52.998;9.116;2023-07-24T14:17:28;22.60;99.90
33328;DHT22;19692;52.998;9.116;2023-07-24T14:19:53;22.70;99.90
33328;DHT22;19692;52.998;9.116;2023-07-24T14:22:19;22.70;99.90
33328;DHT22;19692;52.998;9.116;2023-07-24T14:24:45;22.50;99.90
33328;DHT22;19692;52.998;9.116;2023-07-24T14:27:13;22.40;99.90
33328;DHT22;19692;52.998;9.116;2023-07-24T14:29:39;22.30;99.90
33328;DHT22;19692;52.998;9.116;2023-07-24T14:32:06;22.40;99.90
33328;DHT22;19692;52.998;9.116;2023-07-24T14:34:32;22.50;99.90
33328;DHT22;19692;52.998;9.116;2023-07-24T14:36:58;22.40;99.90
33328;DHT22;19692;52.998;9.116;2023-07-24T14:39:24;22.40;99.90
33328;DHT22;19692;52.998;9.116;2023-07-24T14:41:49;22.30;99.90
33328;DHT22;19692;52.998;9.116;2023-07-24T14:44:15;22.30;99.90
33328;DHT22;19692;52.998;9.116;2023-07-24T14:46:41;22.20;99.90
33328;DHT22;19692;52.998;9.116;2023-07-24T14:49:07;22.20;99.90
33328;DHT22;19692;52.998;9.116;2023-07-24T14:51:33;22.10;99.90
33328;DHT22;19692;52.998;9.116;2023-07-24T14:53:58;22.20;99.90
33328;DHT22;19692;52.998;9.116;2023-07-24T14:56:24;22.20;99.90
33328;DHT22;19692;52.998;9.116;2023-07-24T14:58:50;22.20;99.90
33328;DHT22;19692;52.998;9.116;2023-07-24T15:01:16;22.20;99.90
33328;DHT22;19692;52.998;9.116;2023-07-24T15:03:42;22.20;99.90
33328;DHT22;19692;52.998;9.116;2023-07-24T15:06:07;22.20;99.90
33328;DHT22;19692;52.998;9.116;2023-07-24T15:08:34;22.50;99.90
33328;DHT22;19692;52.998;9.116;2023-07-24T15:11:00;22.40;99.90
33328;DHT22;19692;52.998;9.116;2023-07-24T15:13:26;22.50;99.90
33328;DHT22;19692;52.998;9.116;2023-07-24T15:15:54;22.80;99.90
33328;DHT22;19692;52.998;9.116;2023-07-24T15:18:20;22.70;99.90
33328;DHT22;19692;52.998;9.116;2023-07-24T15:20:51;23.00;99.90
33328;DHT22;19692;52.998;9.116;2023-07-24T15:23:19;23.00;99.90
33328;DHT22;19692;52.998;9.116;2023-07-24T15:25:45;23.00;99.90
33328;DHT22;19692;52.998;9.116;2023-07-24T15:28:10;23.00;99.90
33328;DHT22;19692;52.998;9.116;2023-07-24T15:30:36;23.10;99.90